sensor_id;sensor_type;location;lat;lon;timestamp;pressure;altitude;pressure_sealevel;temperature;humidity
35888;BME280;21990;42.540;23.496;2023-02-14T00:01:19;94832.88;;;-0.54;88.91
35888;BME280;21990;42.540;23.496;2023-02-14T00:03:45;94821.06;;;-0.55;88.09
35888;BME280;21990;42.540;23.496;2023-02-14T00:06:12;94814.13;;;-0.47;87.83
35888;BME280;21990;42.540;23.496;2023-02-14T00:08:40;94824.78;;;-0.29;87.32
35888;BME280;21990;42.540;23.496;2023-02-14T00:11:08;94827.78;;;-0.23;86.88
35888;BME280;21990;42.540;23.496;2023-02-14T00:13:34;94828.44;;;-0.16;86.68
35888;BME280;21990;42.540;23.496;2023-02-14T00:16:00;94814.41;;;-0.09;86.53
35888;BME280;21990;42.540;23.496;2023-02-14T00:18:26;94817.84;;;-0.05;86.26
35888;BME280;21990;42.540;23.496;2023-02-14T00:21:11;94828.31;;;0.04;85.75
35888;BME280;21990;42.540;23.496;2023-02-14T00:23:37;94830.47;;;0.13;85.54
35888;BME280;21990;42.540;23.496;2023-02-14T00:26:02;94824.03;;;0.16;85.73
35888;BME280;21990;42.540;23.496;2023-02-14T00:28:28;94819.97;;;0.20;85.08
35888;BME280;21990;42.540;23.496;2023-02-14T00:30:56;94817.38;;;0.29;84.97
35888;BME280;21990;42.540;23.496;2023-02-14T00:33:21;94822.81;;;0.33;84.99
35888;BME280;21990;42.540;23.496;2023-02-14T00:35:47;94829.25;;;0.30;85.03
35888;BME280;21990;42.540;23.496;2023-02-14T00:38:13;94824.91;;;0.29;85.02
35888;BME280;21990;42.540;23.496;2023-02-14T00:40:38;94832.69;;;0.34;84.94
35888;BME280;21990;42.540;23.496;2023-02-14T00:43:04;94818.84;;;0.34;84.53
35888;BME280;21990;42.540;23.496;2023-02-14T00:45:29;94814.31;;;0.40;84.70
35888;BME280;21990;42.540;23.496;2023-02-14T00:47:54;94812.00;;;0.38;84.96
35888;BME280;21990;42.540;23.496;2023-02-14T00:50:20;94809.53;;;0.40;84.89
35888;BME280;21990;42.540;23.496;2023-02-14T00:52:45;94812.91;;;0.48;84.51
35888;BME280;21990;42.540;23.496;2023-02-14T00:55:11;94812.78;;;0.52;84.58
35888;BME280;21990;42.540;23.496;2023-02-14T00:57:37;94810.28;;;0.57;84.57
35888;BME280;21990;42.540;23.496;2023-02-14T01:00:03;94805.50;;;0.58;84.63
35888;BME280;21990;42.540;23.496;2023-02-14T01:02:29;94803.94;;;0.57;84.56
35888;BME280;21990;42.540;23.496;2023-02-14T01:04:54;94807.50;;;0.57;84.25
35888;BME280;21990;42.540;23.496;2023-02-14T01:07:20;94799.97;;;0.58;84.20
35888;BME280;21990;42.540;23.496;2023-02-14T01:09:47;94801.50;;;0.59;84.24
35888;BME280;21990;42.540;23.496;2023-02-14T01:12:12;94793.75;;;0.66;83.95
35888;BME280;21990;42.540;23.496;2023-02-14T01:14:38;94792.56;;;0.67;83.84
35888;BME280;21990;42.540;23.496;2023-02-14T01:17:03;94795.31;;;0.67;83.36
35888;BME280;21990;42.540;23.496;2023-02-14T01:19:29;94785.78;;;0.68;83.40
35888;BME280;21990;42.540;23.496;2023-02-14T01:21:55;94804.84;;;0.66;83.10
35888;BME280;21990;42.540;23.496;2023-02-14T01:24:20;94782.78;;;0.63;83.29
35888;BME280;21990;42.540;23.496;2023-02-14T01:26:46;94798.88;;;0.68;83.09
35888;BME280;21990;42.540;23.496;2023-02-14T01:29:11;94792.44;;;0.71;82.94
35888;BME280;21990;42.540;23.496;2023-02-14T01:31:37;94776.84;;;0.77;82.72
35888;BME280;21990;42.540;23.496;2023-02-14T01:34:03;94783.16;;;0.77;82.83
35888;BME280;21990;42.540;23.496;2023-02-14T01:36:31;94776.16;;;0.73;82.74
35888;BME280;21990;42.540;23.496;2023-02-14T01:39:04;94773.72;;;0.75;82.74
35888;BME280;21990;42.540;23.496;2023-02-14T01:41:32;94787.47;;;0.78;82.50
35888;BME280;21990;42.540;23.496;2023-02-14T01:44:01;94784.69;;;0.78;82.45
35888;BME280;21990;42.540;23.496;2023-02-14T01:46:29;94777.50;;;0.81;82.51
35888;BME280;21990;42.540;23.496;2023-02-14T01:49:23;94771.59;;;0.79;82.19
35888;BME280;21990;42.540;23.496;2023-02-14T01:52:07;94771.59;;;0.79;82.10
35888;BME280;21990;42.540;23.496;2023-02-14T01:54:41;94769.50;;;0.83;81.71
35888;BME280;21990;42.540;23.496;2023-02-14T01:57:11;94759.53;;;0.85;81.74
35888;BME280;21990;42.540;23.496;2023-02-14T01:59:42;94752.53;;;0.81;81.56
35888;BME280;21990;42.540;23.496;2023-02-14T02:02:10;94756.53;;;0.80;81.95
35888;BME280;21990;42.540;23.496;2023-02-14T02:04:43;94745.44;;;0.80;81.70
35888;BME280;21990;42.540;23.496;2023-02-14T02:07:19;94748.19;;;0.80;81.44
35888;BME280;21990;42.540;23.496;2023-02-14T02:09:58;94758.09;;;0.81;81.38
35888;BME280;21990;42.540;23.496;2023-02-14T02:12:25;94762.41;;;0.82;81.32
35888;BME280;21990;42.540;23.496;2023-02-14T02:14:54;94749.31;;;0.82;81.43
35888;BME280;21990;42.540;23.496;2023-02-14T02:34:57;94736.88;;;0.87;80.88
35888;BME280;21990;42.540;23.496;2023-02-14T02:37:38;94727.78;;;0.86;80.63
35888;BME280;21990;42.540;23.496;2023-02-14T02:43:43;94728.44;;;0.90;80.64
35888;BME280;21990;42.540;23.496;2023-02-14T02:46:24;94725.34;;;0.88;80.45
35888;BME280;21990;42.540;23.496;2023-02-14T02:49:44;94707.50;;;0.89;80.30
35888;BME280;21990;42.540;23.496;2023-02-14T02:52:46;94708.59;;;0.92;80.36
35888;BME280;21990;42.540;23.496;2023-02-14T02:55:46;94703.72;;;0.96;79.96
35888;BME280;21990;42.540;23.496;2023-02-14T02:58:40;94700.72;;;0.90;79.88
35888;BME280;21990;42.540;23.496;2023-02-14T03:01:10;94695.50;;;0.92;79.55
35888;BME280;21990;42.540;23.496;2023-02-14T03:03:39;94720.13;;;0.90;79.73
35888;BME280;21990;42.540;23.496;2023-02-14T03:06:25;94727.34;;;0.88;78.93
35888;BME280;21990;42.540;23.496;2023-02-14T03:08:50;94718.38;;;0.97;78.81
35888;BME280;21990;42.540;23.496;2023-02-14T03:11:16;94723.69;;;0.91;78.40
35888;BME280;21990;42.540;23.496;2023-02-14T03:13:48;94707.03;;;0.91;78.38
35888;BME280;21990;42.540;23.496;2023-02-14T03:22:19;94730.69;;;0.95;77.93
35888;BME280;21990;42.540;23.496;2023-02-14T03:24:53;94720.38;;;0.96;78.58
35888;BME280;21990;42.540;23.496;2023-02-14T03:27:31;94714.03;;;0.95;78.65
35888;BME280;21990;42.540;23.496;2023-02-14T03:30:07;94708.38;;;0.99;78.57
35888;BME280;21990;42.540;23.496;2023-02-14T03:32:51;94695.28;;;1.00;78.97
35888;BME280;21990;42.540;23.496;2023-02-14T03:35:34;94697.81;;;1.07;78.91
35888;BME280;21990;42.540;23.496;2023-02-14T03:38:09;94698.38;;;1.02;78.95
35888;BME280;21990;42.540;23.496;2023-02-14T03:40:40;94691.50;;;1.06;78.90
35888;BME280;21990;42.540;23.496;2023-02-14T03:43:10;94697.41;;;1.08;79.01
35888;BME280;21990;42.540;23.496;2023-02-14T03:45:44;94704.16;;;1.07;78.83
35888;BME280;21990;42.540;23.496;2023-02-14T03:48:13;94682.38;;;1.06;79.21
35888;BME280;21990;42.540;23.496;2023-02-14T03:50:42;94683.63;;;1.05;78.85
35888;BME280;21990;42.540;23.496;2023-02-14T03:53:10;94675.50;;;1.10;78.75
35888;BME280;21990;42.540;23.496;2023-02-14T03:55:57;94679.63;;;1.06;78.74
35888;BME280;21990;42.540;23.496;2023-02-14T03:58:29;94674.28;;;0.99;78.89
35888;BME280;21990;42.540;23.496;2023-02-14T04:01:00;94680.75;;;0.95;78.94
35888;BME280;21990;42.540;23.496;2023-02-14T04:03:28;94669.63;;;0.95;78.98
35888;BME280;21990;42.540;23.496;2023-02-14T04:05:55;94669.97;;;0.98;78.79
35888;BME280;21990;42.540;23.496;2023-02-14T04:08:24;94661.44;;;0.92;78.77
35888;BME280;21990;42.540;23.496;2023-02-14T04:10:51;94659.88;;;0.91;79.05
35888;BME280;21990;42.540;23.496;2023-02-14T04:13:17;94653.09;;;0.92;79.14
35888;BME280;21990;42.540;23.496;2023-02-14T04:15:42;94650.19;;;0.83;79.07
35888;BME280;21990;42.540;23.496;2023-02-14T04:18:08;94655.88;;;0.79;79.22
35888;BME280;21990;42.540;23.496;2023-02-14T04:20:52;94652.19;;;0.82;79.09
35888;BME280;21990;42.540;23.496;2023-02-14T04:23:18;94650.00;;;0.77;79.13
35888;BME280;21990;42.540;23.496;2023-02-14T04:25:43;94650.44;;;0.76;79.10
35888;BME280;21990;42.540;23.496;2023-02-14T04:28:10;94655.44;;;0.81;78.80
35888;BME280;21990;42.540;23.496;2023-02-14T04:30:36;94663.19;;;0.73;79.30
35888;BME280;21990;42.540;23.496;2023-02-14T04:33:02;94657.84;;;0.79;79.02
35888;BME280;21990;42.540;23.496;2023-02-14T04:35:28;94662.63;;;0.78;79.31
35888;BME280;21990;42.540;23.496;2023-02-14T04:37:54;94660.19;;;0.80;78.66
35888;BME280;21990;42.540;23.496;2023-02-14T04:40:19;94649.88;;;0.81;78.58
35888;BME280;21990;42.540;23.496;2023-02-14T04:42:45;94661.84;;;0.78;78.17
35888;BME280;21990;42.540;23.496;2023-02-14T04:45:12;94659.53;;;0.76;77.51
35888;BME280;21990;42.540;23.496;2023-02-14T04:47:37;94655.97;;;0.76;77.78
35888;BME280;21990;42.540;23.496;2023-02-14T04:50:03;94652.53;;;0.72;77.81
35888;BME280;21990;42.540;23.496;2023-02-14T04:52:29;94660.06;;;0.71;77.91
35888;BME280;21990;42.540;23.496;2023-02-14T04:54:55;94648.44;;;0.76;77.56
35888;BME280;21990;42.540;23.496;2023-02-14T04:57:21;94639.22;;;0.67;78.09
35888;BME280;21990;42.540;23.496;2023-02-14T04:59:46;94634.69;;;0.73;78.00
35888;BME280;21990;42.540;23.496;2023-02-14T05:02:12;94626.91;;;0.68;78.20
35888;BME280;21990;42.540;23.496;2023-02-14T05:04:37;94627.34;;;0.66;78.04
35888;BME280;21990;42.540;23.496;2023-02-14T05:07:03;94619.78;;;0.67;78.38
35888;BME280;21990;42.540;23.496;2023-02-14T05:09:28;94623.03;;;0.65;78.13
35888;BME280;21990;42.540;23.496;2023-02-14T05:11:54;94626.47;;;0.69;78.15
35888;BME280;21990;42.540;23.496;2023-02-14T05:14:20;94635.22;;;0.68;77.53
35888;BME280;21990;42.540;23.496;2023-02-14T05:16:45;94629.78;;;0.64;77.02
35888;BME280;21990;42.540;23.496;2023-02-14T05:19:11;94625.69;;;0.56;76.74
35888;BME280;21990;42.540;23.496;2023-02-14T05:21:36;94622.78;;;0.60;76.56
35888;BME280;21990;42.540;23.496;2023-02-14T05:24:03;94630.00;;;0.57;76.71
35888;BME280;21990;42.540;23.496;2023-02-14T05:26:29;94636.34;;;0.58;77.01
35888;BME280;21990;42.540;23.496;2023-02-14T05:28:55;94619.91;;;0.51;76.86
35888;BME280;21990;42.540;23.496;2023-02-14T05:31:21;94621.56;;;0.48;76.96
35888;BME280;21990;42.540;23.496;2023-02-14T05:33:46;94624.22;;;0.52;77.52
35888;BME280;21990;42.540;23.496;2023-02-14T05:36:12;94625.25;;;0.58;77.27
35888;BME280;21990;42.540;23.496;2023-02-14T05:38:38;94619.91;;;0.63;77.01
35888;BME280;21990;42.540;23.496;2023-02-14T05:41:03;94622.91;;;0.56;77.08
35888;BME280;21990;42.540;23.496;2023-02-14T05:43:29;94627.00;;;0.52;77.20
35888;BME280;21990;42.540;23.496;2023-02-14T05:45:55;94637.78;;;0.50;77.34
35888;BME280;21990;42.540;23.496;2023-02-14T05:48:21;94629.34;;;0.53;77.38
35888;BME280;21990;42.540;23.496;2023-02-14T05:50:46;94626.03;;;0.58;77.11
35888;BME280;21990;42.540;23.496;2023-02-14T05:53:12;94624.34;;;0.61;76.60
35888;BME280;21990;42.540;23.496;2023-02-14T05:55:38;94627.44;;;0.63;76.63
35888;BME280;21990;42.540;23.496;2023-02-14T05:58:03;94643.53;;;0.68;76.58
35888;BME280;21990;42.540;23.496;2023-02-14T06:00:29;94636.13;;;0.65;76.80
35888;BME280;21990;42.540;23.496;2023-02-14T06:02:55;94639.56;;;0.69;76.80
35888;BME280;21990;42.540;23.496;2023-02-14T06:05:20;94641.31;;;0.75;76.72
35888;BME280;21990;42.540;23.496;2023-02-14T06:07:49;94635.13;;;0.71;76.89
35888;BME280;21990;42.540;23.496;2023-02-14T06:10:16;94639.66;;;0.78;77.24
35888;BME280;21990;42.540;23.496;2023-02-14T06:12:42;94648.66;;;0.82;77.32
35888;BME280;21990;42.540;23.496;2023-02-14T06:15:08;94646.66;;;0.95;76.78
35888;BME280;21990;42.540;23.496;2023-02-14T06:17:33;94643.66;;;1.15;77.04
35888;BME280;21990;42.540;23.496;2023-02-14T06:19:59;94648.53;;;1.70;76.07
35888;BME280;21990;42.540;23.496;2023-02-14T06:22:24;94648.84;;;2.28;73.90
35888;BME280;21990;42.540;23.496;2023-02-14T06:24:50;94647.22;;;2.71;73.35
35888;BME280;21990;42.540;23.496;2023-02-14T06:27:16;94637.88;;;3.26;71.49
35888;BME280;21990;42.540;23.496;2023-02-14T06:29:41;94641.09;;;4.10;68.36
35888;BME280;21990;42.540;23.496;2023-02-14T06:32:07;94631.91;;;4.46;69.32
35888;BME280;21990;42.540;23.496;2023-02-14T06:34:33;94629.91;;;5.63;69.24
35888;BME280;21990;42.540;23.496;2023-02-14T06:36:59;94634.44;;;6.08;63.93
35888;BME280;21990;42.540;23.496;2023-02-14T06:39:24;94631.03;;;6.43;67.46
35888;BME280;21990;42.540;23.496;2023-02-14T06:41:50;94646.22;;;6.65;59.61
35888;BME280;21990;42.540;23.496;2023-02-14T06:44:15;94632.81;;;6.69;60.42
35888;BME280;21990;42.540;23.496;2023-02-14T06:46:41;94640.56;;;6.22;59.05
35888;BME280;21990;42.540;23.496;2023-02-14T06:49:08;94640.03;;;6.08;62.41
35888;BME280;21990;42.540;23.496;2023-02-14T06:51:34;94639.84;;;5.41;60.96
35888;BME280;21990;42.540;23.496;2023-02-14T06:53:59;94639.13;;;4.80;62.64
35888;BME280;21990;42.540;23.496;2023-02-14T06:56:25;94636.09;;;4.42;63.72
35888;BME280;21990;42.540;23.496;2023-02-14T06:58:50;94629.44;;;3.94;65.66
35888;BME280;21990;42.540;23.496;2023-02-14T07:01:16;94632.25;;;3.75;67.05
35888;BME280;21990;42.540;23.496;2023-02-14T07:03:41;94638.22;;;3.38;68.20
35888;BME280;21990;42.540;23.496;2023-02-14T07:06:07;94626.88;;;3.23;69.05
35888;BME280;21990;42.540;23.496;2023-02-14T07:08:33;94624.94;;;3.02;70.09
35888;BME280;21990;42.540;23.496;2023-02-14T07:10:58;94622.31;;;2.98;70.75
35888;BME280;21990;42.540;23.496;2023-02-14T07:13:24;94621.34;;;2.92;71.01
35888;BME280;21990;42.540;23.496;2023-02-14T07:15:50;94611.13;;;2.89;71.60
35888;BME280;21990;42.540;23.496;2023-02-14T07:18:16;94603.56;;;2.90;71.61
35888;BME280;21990;42.540;23.496;2023-02-14T07:20:41;94617.91;;;2.88;71.78
35888;BME280;21990;42.540;23.496;2023-02-14T07:23:09;94596.06;;;2.77;72.19
35888;BME280;21990;42.540;23.496;2023-02-14T07:25:34;94610.56;;;2.72;72.67
35888;BME280;21990;42.540;23.496;2023-02-14T07:28:00;94603.63;;;2.68;72.68
35888;BME280;21990;42.540;23.496;2023-02-14T07:30:26;94606.41;;;2.68;73.12
35888;BME280;21990;42.540;23.496;2023-02-14T07:32:52;94611.19;;;2.67;73.00
35888;BME280;21990;42.540;23.496;2023-02-14T07:35:17;94614.91;;;2.64;73.60
35888;BME280;21990;42.540;23.496;2023-02-14T07:37:43;94618.13;;;2.63;73.65
35888;BME280;21990;42.540;23.496;2023-02-14T07:40:09;94615.34;;;2.63;74.21
35888;BME280;21990;42.540;23.496;2023-02-14T07:42:35;94616.84;;;2.55;74.74
35888;BME280;21990;42.540;23.496;2023-02-14T07:45:00;94626.28;;;2.57;74.81
35888;BME280;21990;42.540;23.496;2023-02-14T07:47:27;94614.41;;;2.57;74.85
35888;BME280;21990;42.540;23.496;2023-02-14T07:49:52;94615.78;;;2.61;75.07
35888;BME280;21990;42.540;23.496;2023-02-14T07:52:18;94620.72;;;2.57;75.42
35888;BME280;21990;42.540;23.496;2023-02-14T07:54:43;94629.69;;;2.61;75.33
35888;BME280;21990;42.540;23.496;2023-02-14T07:57:09;94622.28;;;2.58;75.66
35888;BME280;21990;42.540;23.496;2023-02-14T07:59:34;94632.03;;;2.63;75.56
35888;BME280;21990;42.540;23.496;2023-02-14T08:02:00;94617.97;;;2.66;75.75
35888;BME280;21990;42.540;23.496;2023-02-14T08:04:25;94624.31;;;2.67;76.06
35888;BME280;21990;42.540;23.496;2023-02-14T08:06:52;94623.25;;;2.64;76.21
35888;BME280;21990;42.540;23.496;2023-02-14T08:09:18;94636.88;;;2.71;76.34
35888;BME280;21990;42.540;23.496;2023-02-14T08:11:51;94619.31;;;2.53;77.33
35888;BME280;21990;42.540;23.496;2023-02-14T08:14:35;94625.31;;;2.51;76.96
35888;BME280;21990;42.540;23.496;2023-02-14T08:17:01;94613.63;;;2.56;77.40
35888;BME280;21990;42.540;23.496;2023-02-14T08:19:27;94635.25;;;2.61;77.49
35888;BME280;21990;42.540;23.496;2023-02-14T08:21:53;94624.31;;;2.67;77.13
35888;BME280;21990;42.540;23.496;2023-02-14T08:24:18;94626.78;;;2.65;77.17
35888;BME280;21990;42.540;23.496;2023-02-14T08:26:44;94630.19;;;2.69;77.43
35888;BME280;21990;42.540;23.496;2023-02-14T08:29:09;94640.09;;;2.70;76.95
35888;BME280;21990;42.540;23.496;2023-02-14T08:31:35;94635.50;;;2.76;77.46
35888;BME280;21990;42.540;23.496;2023-02-14T08:34:03;94651.09;;;2.73;77.77
35888;BME280;21990;42.540;23.496;2023-02-14T08:36:29;94649.22;;;2.70;77.80
35888;BME280;21990;42.540;23.496;2023-02-14T08:38:54;94639.38;;;2.78;77.61
35888;BME280;21990;42.540;23.496;2023-02-14T08:41:22;94632.75;;;2.85;77.42
35888;BME280;21990;42.540;23.496;2023-02-14T08:43:48;94630.94;;;2.91;77.45
35888;BME280;21990;42.540;23.496;2023-02-14T08:46:14;94639.78;;;2.99;77.69
35888;BME280;21990;42.540;23.496;2023-02-14T08:48:41;94635.00;;;2.99;77.25
35888;BME280;21990;42.540;23.496;2023-02-14T08:51:08;94647.16;;;2.93;77.23
35888;BME280;21990;42.540;23.496;2023-02-14T08:53:35;94642.38;;;2.93;77.63
35888;BME280;21990;42.540;23.496;2023-02-14T08:56:09;94653.84;;;2.95;77.79
35888;BME280;21990;42.540;23.496;2023-02-14T08:58:36;94651.31;;;2.88;77.88
35888;BME280;21990;42.540;23.496;2023-02-14T09:01:14;94644.22;;;2.87;78.41
35888;BME280;21990;42.540;23.496;2023-02-14T09:03:41;94645.81;;;2.97;77.90
35888;BME280;21990;42.540;23.496;2023-02-14T09:06:11;94644.66;;;2.85;77.88
35888;BME280;21990;42.540;23.496;2023-02-14T09:08:38;94646.09;;;2.90;78.13
35888;BME280;21990;42.540;23.496;2023-02-14T09:11:17;94648.53;;;2.88;78.41
35888;BME280;21990;42.540;23.496;2023-02-14T09:13:44;94640.97;;;2.88;78.33
35888;BME280;21990;42.540;23.496;2023-02-14T09:16:12;94639.56;;;2.84;78.53
35888;BME280;21990;42.540;23.496;2023-02-14T09:18:39;94640.38;;;2.94;78.81
35888;BME280;21990;42.540;23.496;2023-02-14T09:21:09;94627.41;;;3.00;78.67
35888;BME280;21990;42.540;23.496;2023-02-14T09:23:35;94635.31;;;3.01;78.76
35888;BME280;21990;42.540;23.496;2023-02-14T09:26:02;94634.06;;;3.02;78.53
35888;BME280;21990;42.540;23.496;2023-02-14T09:28:28;94628.81;;;3.04;78.49
35888;BME280;21990;42.540;23.496;2023-02-14T09:30:54;94629.59;;;3.05;79.07
35888;BME280;21990;42.540;23.496;2023-02-14T09:33:19;94632.22;;;3.08;79.05
35888;BME280;21990;42.540;23.496;2023-02-14T09:35:45;94616.94;;;3.13;78.97
35888;BME280;21990;42.540;23.496;2023-02-14T09:38:29;94622.69;;;3.18;78.74
35888;BME280;21990;42.540;23.496;2023-02-14T09:40:54;94623.91;;;3.17;78.58
35888;BME280;21990;42.540;23.496;2023-02-14T09:43:25;94626.84;;;3.14;78.75
35888;BME280;21990;42.540;23.496;2023-02-14T09:45:56;94623.09;;;3.08;78.59
35888;BME280;21990;42.540;23.496;2023-02-14T09:48:28;94628.41;;;3.15;78.50
35888;BME280;21990;42.540;23.496;2023-02-14T09:51:06;94624.38;;;3.16;78.19
35888;BME280;21990;42.540;23.496;2023-02-14T09:53:40;94620.69;;;3.19;78.01
35888;BME280;21990;42.540;23.496;2023-02-14T09:56:26;94607.91;;;3.00;78.52
35888;BME280;21990;42.540;23.496;2023-02-14T09:59:29;94615.06;;;3.10;77.97
35888;BME280;21990;42.540;23.496;2023-02-14T10:07:37;94603.91;;;3.01;78.39
35888;BME280;21990;42.540;23.496;2023-02-14T10:10:13;94606.66;;;2.92;78.27
35888;BME280;21990;42.540;23.496;2023-02-14T10:12:45;94599.06;;;2.92;78.48
35888;BME280;21990;42.540;23.496;2023-02-14T10:15:21;94597.38;;;2.95;78.70
35888;BME280;21990;42.540;23.496;2023-02-14T10:17:57;94602.47;;;2.96;78.48
35888;BME280;21990;42.540;23.496;2023-02-14T10:20:30;94592.75;;;2.92;78.61
35888;BME280;21990;42.540;23.496;2023-02-14T10:23:04;94596.63;;;2.94;78.47
35888;BME280;21990;42.540;23.496;2023-02-14T10:25:45;94593.22;;;2.99;78.16
35888;BME280;21990;42.540;23.496;2023-02-14T10:28:13;94589.34;;;2.97;78.22
35888;BME280;21990;42.540;23.496;2023-02-14T10:30:45;94593.19;;;2.90;78.59
35888;BME280;21990;42.540;23.496;2023-02-14T10:33:18;94577.13;;;2.94;78.50
35888;BME280;21990;42.540;23.496;2023-02-14T10:35:50;94579.31;;;2.99;77.66
35888;BME280;21990;42.540;23.496;2023-02-14T10:38:42;94591.50;;;2.93;77.66
35888;BME280;21990;42.540;23.496;2023-02-14T10:41:48;94587.94;;;2.92;76.99
35888;BME280;21990;42.540;23.496;2023-02-14T10:47:22;94571.94;;;2.74;77.52
35888;BME280;21990;42.540;23.496;2023-02-14T10:53:07;94577.22;;;2.81;77.48
35888;BME280;21990;42.540;23.496;2023-02-14T10:55:43;94571.84;;;2.87;77.31
35888;BME280;21990;42.540;23.496;2023-02-14T10:58:16;94583.00;;;2.96;77.45
35888;BME280;21990;42.540;23.496;2023-02-14T11:03:27;94562.25;;;2.88;77.58
35888;BME280;21990;42.540;23.496;2023-02-14T11:05:53;94575.56;;;2.84;77.75
35888;BME280;21990;42.540;23.496;2023-02-14T11:08:26;94563.47;;;2.78;78.00
35888;BME280;21990;42.540;23.496;2023-02-14T11:11:00;94572.13;;;2.80;77.90
35888;BME280;21990;42.540;23.496;2023-02-14T11:13:32;94558.84;;;2.84;77.88
35888;BME280;21990;42.540;23.496;2023-02-14T11:16:00;94577.09;;;2.85;77.56
35888;BME280;21990;42.540;23.496;2023-02-14T11:18:27;94568.59;;;2.88;77.02
35888;BME280;21990;42.540;23.496;2023-02-14T11:21:06;94564.41;;;2.84;76.72
35888;BME280;21990;42.540;23.496;2023-02-14T11:23:35;94553.56;;;2.77;77.36
35888;BME280;21990;42.540;23.496;2023-02-14T11:26:03;94560.00;;;2.65;77.80
35888;BME280;21990;42.540;23.496;2023-02-14T11:28:30;94568.66;;;2.67;77.61
35888;BME280;21990;42.540;23.496;2023-02-14T11:30:56;94560.91;;;2.62;77.84
35888;BME280;21990;42.540;23.496;2023-02-14T11:33:38;94548.06;;;2.55;77.63
35888;BME280;21990;42.540;23.496;2023-02-14T11:36:10;94549.13;;;2.49;78.00
35888;BME280;21990;42.540;23.496;2023-02-14T11:38:37;94540.16;;;2.54;78.24
35888;BME280;21990;42.540;23.496;2023-02-14T11:41:10;94540.16;;;2.54;77.79
35888;BME280;21990;42.540;23.496;2023-02-14T11:43:39;94520.38;;;2.52;77.77
35888;BME280;21990;42.540;23.496;2023-02-14T11:46:32;94541.72;;;2.55;77.53
35888;BME280;21990;42.540;23.496;2023-02-14T11:49:02;94540.94;;;2.54;77.92
35888;BME280;21990;42.540;23.496;2023-02-14T11:51:35;94548.38;;;2.57;77.43
35888;BME280;21990;42.540;23.496;2023-02-14T11:54:03;94547.63;;;2.57;77.36
35888;BME280;21990;42.540;23.496;2023-02-14T11:57:33;94543.00;;;2.63;77.30
35888;BME280;21990;42.540;23.496;2023-02-14T11:59:55;94530.16;;;2.56;77.49
35888;BME280;21990;42.540;23.496;2023-02-14T12:02:31;94527.19;;;2.51;77.37
35888;BME280;21990;42.540;23.496;2023-02-14T12:05:05;94519.28;;;2.49;77.07
35888;BME280;21990;42.540;23.496;2023-02-14T12:07:37;94530.41;;;2.49;76.56
35888;BME280;21990;42.540;23.496;2023-02-14T12:12:35;94516.97;;;2.48;76.69
35888;BME280;21990;42.540;23.496;2023-02-14T12:26:49;94529.53;;;2.61;75.66
35888;BME280;21990;42.540;23.496;2023-02-14T12:29:29;94526.00;;;2.70;75.84
35888;BME280;21990;42.540;23.496;2023-02-14T12:32:01;94505.59;;;2.73;75.07
35888;BME280;21990;42.540;23.496;2023-02-14T12:34:27;94514.00;;;2.82;74.77
35888;BME280;21990;42.540;23.496;2023-02-14T12:37:10;94509.34;;;2.79;74.75
35888;BME280;21990;42.540;23.496;2023-02-14T12:45:58;94504.63;;;3.07;74.10
35888;BME280;21990;42.540;23.496;2023-02-14T12:48:33;94493.63;;;3.12;73.43
35888;BME280;21990;42.540;23.496;2023-02-14T12:51:05;94493.19;;;3.23;74.43
35888;BME280;21990;42.540;23.496;2023-02-14T12:56:41;94512.06;;;3.19;73.50
35888;BME280;21990;42.540;23.496;2023-02-14T12:59:25;94507.88;;;3.14;73.66
35888;BME280;21990;42.540;23.496;2023-02-14T13:13:38;94496.41;;;3.12;72.91
35888;BME280;21990;42.540;23.496;2023-02-14T13:16:27;94496.41;;;3.12;73.59
35888;BME280;21990;42.540;23.496;2023-02-14T13:21:45;94497.38;;;3.18;73.50
35888;BME280;21990;42.540;23.496;2023-02-14T13:24:20;94508.03;;;3.11;74.01
35888;BME280;21990;42.540;23.496;2023-02-14T13:26:59;94495.97;;;3.14;73.79
35888;BME280;21990;42.540;23.496;2023-02-14T13:29:35;94486.06;;;3.13;74.43
35888;BME280;21990;42.540;23.496;2023-02-14T13:32:05;94498.13;;;3.10;73.99
35888;BME280;21990;42.540;23.496;2023-02-14T13:34:51;94488.19;;;3.00;74.50
35888;BME280;21990;42.540;23.496;2023-02-14T13:37:22;94490.97;;;3.00;75.11
35888;BME280;21990;42.540;23.496;2023-02-14T13:39:56;94475.97;;;2.97;75.19
35888;BME280;21990;42.540;23.496;2023-02-14T13:42:49;94490.50;;;2.92;75.81
35888;BME280;21990;42.540;23.496;2023-02-14T13:50:40;94495.16;;;2.95;76.78
35888;BME280;21990;42.540;23.496;2023-02-14T13:53:31;94496.25;;;2.98;76.18
35888;BME280;21990;42.540;23.496;2023-02-14T13:55:57;94490.69;;;2.98;76.10
35888;BME280;21990;42.540;23.496;2023-02-14T13:58:23;94489.41;;;2.90;76.41
35888;BME280;21990;42.540;23.496;2023-02-14T14:00:53;94508.75;;;2.84;76.50
35888;BME280;21990;42.540;23.496;2023-02-14T14:06:01;94504.72;;;2.76;77.59
35888;BME280;21990;42.540;23.496;2023-02-14T14:10:57;94494.97;;;2.80;77.57
35888;BME280;21990;42.540;23.496;2023-02-14T14:21:28;94489.38;;;2.71;77.69
35888;BME280;21990;42.540;23.496;2023-02-14T14:26:46;94492.75;;;2.66;78.63
35888;BME280;21990;42.540;23.496;2023-02-14T14:29:55;94489.53;;;2.68;78.97
35888;BME280;21990;42.540;23.496;2023-02-14T14:34:58;94479.47;;;2.70;78.24
35888;BME280;21990;42.540;23.496;2023-02-14T14:37:33;94475.13;;;2.69;78.00
35888;BME280;21990;42.540;23.496;2023-02-14T14:40:06;94474.84;;;2.67;78.50
35888;BME280;21990;42.540;23.496;2023-02-14T14:42:36;94485.00;;;2.61;78.46
35888;BME280;21990;42.540;23.496;2023-02-14T14:45:06;94479.00;;;2.63;78.58
35888;BME280;21990;42.540;23.496;2023-02-14T14:47:40;94477.91;;;2.60;78.19
35888;BME280;21990;42.540;23.496;2023-02-14T14:50:13;94479.28;;;2.56;78.67
35888;BME280;21990;42.540;23.496;2023-02-14T14:52:42;94484.72;;;2.59;78.66
35888;BME280;21990;42.540;23.496;2023-02-14T14:55:19;94485.94;;;2.58;78.82
35888;BME280;21990;42.540;23.496;2023-02-14T14:57:57;94497.69;;;2.62;78.37
35888;BME280;21990;42.540;23.496;2023-02-14T15:00:26;94493.22;;;2.65;78.38